Terminal Aerodrome Forecast
Issued by NWS

Home | Current Version | Previous Version | Text Only | Print | Product List | Glossary On
Versions: 1 2 3 4 5 6 7 8 9 10 11 12 13 14 15 16
089
FTUS45 KABQ 221741
TAFROW
TAF
KROW 221741Z 2218/2318 02007KT P6SM SKC
     FM222200 01013KT P6SM VCTS BKN070CB
     FM230200 02010KT P6SM VCSH BKN060
     FM230700 02008KT 6SM BR OVC015
     FM231500 02006KT P6SM SCT040=

USA.gov is the U.S. government's official web portal to all federal, state and local government web resources and services.